sensor_id;sensor_type;location;lat;lon;timestamp;P1;durP1;ratioP1;P2;durP2;ratioP2
73140;SDS011;61339;50.558;4.696;2023-07-29T00:00:36;8.68;;;3.72;;
73140;SDS011;61339;50.558;4.696;2023-07-29T00:03:01;7.33;;;3.50;;
73140;SDS011;61339;50.558;4.696;2023-07-29T00:05:26;9.80;;;3.60;;
73140;SDS011;61339;50.558;4.696;2023-07-29T00:07:52;8.07;;;3.50;;
73140;SDS011;61339;50.558;4.696;2023-07-29T00:10:17;5.90;;;3.10;;
73140;SDS011;61339;50.558;4.696;2023-07-29T00:12:43;12.57;;;3.53;;
73140;SDS011;61339;50.558;4.696;2023-07-29T00:15:08;9.53;;;3.60;;
73140;SDS011;61339;50.558;4.696;2023-07-29T00:17:34;7.50;;;3.70;;
73140;SDS011;61339;50.558;4.696;2023-07-29T00:19:59;10.48;;;4.03;;
73140;SDS011;61339;50.558;4.696;2023-07-29T00:22:25;9.93;;;3.60;;
73140;SDS011;61339;50.558;4.696;2023-07-29T00:24:53;7.47;;;3.53;;
73140;SDS011;61339;50.558;4.696;2023-07-29T00:27:22;10.60;;;3.58;;
73140;SDS011;61339;50.558;4.696;2023-07-29T00:29:48;6.80;;;3.40;;
73140;SDS011;61339;50.558;4.696;2023-07-29T00:32:14;6.32;;;3.20;;
73140;SDS011;61339;50.558;4.696;2023-07-29T00:34:39;8.87;;;3.47;;
73140;SDS011;61339;50.558;4.696;2023-07-29T00:37:04;6.70;;;3.00;;
73140;SDS011;61339;50.558;4.696;2023-07-29T00:39:31;8.60;;;3.72;;
73140;SDS011;61339;50.558;4.696;2023-07-29T00:41:59;8.07;;;3.53;;
73140;SDS011;61339;50.558;4.696;2023-07-29T00:44:24;9.57;;;3.50;;
73140;SDS011;61339;50.558;4.696;2023-07-29T00:46:52;8.23;;;3.50;;
73140;SDS011;61339;50.558;4.696;2023-07-29T00:49:19;7.32;;;3.75;;
73140;SDS011;61339;50.558;4.696;2023-07-29T00:51:45;6.60;;;3.22;;
73140;SDS011;61339;50.558;4.696;2023-07-29T00:54:11;8.40;;;3.60;;
73140;SDS011;61339;50.558;4.696;2023-07-29T00:56:36;9.40;;;3.53;;
73140;SDS011;61339;50.558;4.696;2023-07-29T00:59:03;7.82;;;3.55;;
73140;SDS011;61339;50.558;4.696;2023-07-29T01:01:29;7.18;;;3.42;;
73140;SDS011;61339;50.558;4.696;2023-07-29T01:03:55;10.73;;;3.10;;
73140;SDS011;61339;50.558;4.696;2023-07-29T01:06:27;6.80;;;2.75;;
73140;SDS011;61339;50.558;4.696;2023-07-29T01:09:03;6.33;;;2.50;;
73140;SDS011;61339;50.558;4.696;2023-07-29T01:11:46;5.88;;;2.28;;
73140;SDS011;61339;50.558;4.696;2023-07-29T01:14:27;4.68;;;2.15;;
73140;SDS011;61339;50.558;4.696;2023-07-29T01:16:55;6.50;;;2.20;;
73140;SDS011;61339;50.558;4.696;2023-07-29T01:21:50;5.40;;;2.00;;
73140;SDS011;61339;50.558;4.696;2023-07-29T01:24:16;4.97;;;1.83;;
73140;SDS011;61339;50.558;4.696;2023-07-29T01:26:42;7.82;;;1.95;;
73140;SDS011;61339;50.558;4.696;2023-07-29T01:29:07;6.57;;;1.97;;
73140;SDS011;61339;50.558;4.696;2023-07-29T01:31:33;8.03;;;2.00;;
73140;SDS011;61339;50.558;4.696;2023-07-29T01:34:06;4.65;;;1.90;;
73140;SDS011;61339;50.558;4.696;2023-07-29T01:36:36;6.13;;;1.90;;
73140;SDS011;61339;50.558;4.696;2023-07-29T01:39:05;4.90;;;1.70;;
73140;SDS011;61339;50.558;4.696;2023-07-29T01:41:31;5.35;;;1.92;;
73140;SDS011;61339;50.558;4.696;2023-07-29T01:43:58;7.60;;;2.10;;
73140;SDS011;61339;50.558;4.696;2023-07-29T01:46:25;6.43;;;1.90;;
73140;SDS011;61339;50.558;4.696;2023-07-29T01:48:50;5.63;;;1.70;;
73140;SDS011;61339;50.558;4.696;2023-07-29T01:51:16;7.20;;;1.80;;
73140;SDS011;61339;50.558;4.696;2023-07-29T01:53:41;4.93;;;1.70;;
73140;SDS011;61339;50.558;4.696;2023-07-29T01:56:07;6.53;;;2.00;;
73140;SDS011;61339;50.558;4.696;2023-07-29T01:58:32;7.10;;;1.60;;
73140;SDS011;61339;50.558;4.696;2023-07-29T02:00:57;6.70;;;2.00;;
73140;SDS011;61339;50.558;4.696;2023-07-29T02:03:23;5.83;;;1.70;;
73140;SDS011;61339;50.558;4.696;2023-07-29T02:05:48;6.63;;;1.90;;
73140;SDS011;61339;50.558;4.696;2023-07-29T02:08:14;5.10;;;1.70;;
73140;SDS011;61339;50.558;4.696;2023-07-29T02:10:39;5.80;;;1.80;;
73140;SDS011;61339;50.558;4.696;2023-07-29T02:13:05;6.77;;;1.83;;
73140;SDS011;61339;50.558;4.696;2023-07-29T02:15:30;6.03;;;1.67;;
73140;SDS011;61339;50.558;4.696;2023-07-29T02:17:56;4.57;;;1.70;;
73140;SDS011;61339;50.558;4.696;2023-07-29T02:20:21;7.40;;;1.80;;
73140;SDS011;61339;50.558;4.696;2023-07-29T02:22:46;7.30;;;1.90;;
73140;SDS011;61339;50.558;4.696;2023-07-29T02:25:13;6.72;;;1.83;;
73140;SDS011;61339;50.558;4.696;2023-07-29T02:27:39;5.17;;;1.80;;
73140;SDS011;61339;50.558;4.696;2023-07-29T02:30:04;7.97;;;2.10;;
73140;SDS011;61339;50.558;4.696;2023-07-29T02:32:30;5.93;;;2.00;;
73140;SDS011;61339;50.558;4.696;2023-07-29T02:34:56;6.53;;;2.00;;
73140;SDS011;61339;50.558;4.696;2023-07-29T02:37:21;8.67;;;2.13;;
73140;SDS011;61339;50.558;4.696;2023-07-29T02:39:47;6.87;;;2.20;;
73140;SDS011;61339;50.558;4.696;2023-07-29T02:42:12;8.43;;;2.10;;
73140;SDS011;61339;50.558;4.696;2023-07-29T02:44:38;4.50;;;1.90;;
73140;SDS011;61339;50.558;4.696;2023-07-29T02:47:04;7.10;;;2.10;;
73140;SDS011;61339;50.558;4.696;2023-07-29T02:49:30;5.97;;;2.03;;
73140;SDS011;61339;50.558;4.696;2023-07-29T02:51:55;5.30;;;2.00;;
73140;SDS011;61339;50.558;4.696;2023-07-29T02:54:21;6.00;;;2.20;;
73140;SDS011;61339;50.558;4.696;2023-07-29T02:56:46;5.53;;;2.10;;
73140;SDS011;61339;50.558;4.696;2023-07-29T02:59:11;5.57;;;1.90;;
73140;SDS011;61339;50.558;4.696;2023-07-29T03:01:37;5.32;;;1.67;;
73140;SDS011;61339;50.558;4.696;2023-07-29T03:04:02;9.73;;;2.20;;
73140;SDS011;61339;50.558;4.696;2023-07-29T03:06:28;6.70;;;1.87;;
73140;SDS011;61339;50.558;4.696;2023-07-29T03:08:54;7.03;;;1.83;;
73140;SDS011;61339;50.558;4.696;2023-07-29T03:11:19;5.53;;;2.00;;
73140;SDS011;61339;50.558;4.696;2023-07-29T03:13:45;6.80;;;2.00;;
73140;SDS011;61339;50.558;4.696;2023-07-29T03:16:13;7.00;;;2.30;;
73140;SDS011;61339;50.558;4.696;2023-07-29T03:18:42;7.28;;;2.10;;
73140;SDS011;61339;50.558;4.696;2023-07-29T03:21:08;6.40;;;2.13;;
73140;SDS011;61339;50.558;4.696;2023-07-29T03:23:34;7.70;;;1.90;;
73140;SDS011;61339;50.558;4.696;2023-07-29T03:26:01;6.82;;;2.10;;
73140;SDS011;61339;50.558;4.696;2023-07-29T03:28:35;9.17;;;2.30;;
73140;SDS011;61339;50.558;4.696;2023-07-29T03:31:02;5.30;;;1.88;;
73140;SDS011;61339;50.558;4.696;2023-07-29T03:33:28;5.88;;;2.15;;
73140;SDS011;61339;50.558;4.696;2023-07-29T03:35:53;8.60;;;2.20;;
73140;SDS011;61339;50.558;4.696;2023-07-29T03:38:19;7.05;;;2.38;;
73140;SDS011;61339;50.558;4.696;2023-07-29T03:40:44;7.83;;;2.33;;
73140;SDS011;61339;50.558;4.696;2023-07-29T03:43:10;7.23;;;2.47;;
73140;SDS011;61339;50.558;4.696;2023-07-29T03:45:36;7.45;;;2.05;;
73140;SDS011;61339;50.558;4.696;2023-07-29T03:48:02;8.57;;;2.20;;
73140;SDS011;61339;50.558;4.696;2023-07-29T03:50:29;7.77;;;2.20;;
73140;SDS011;61339;50.558;4.696;2023-07-29T03:52:55;7.25;;;1.88;;
73140;SDS011;61339;50.558;4.696;2023-07-29T03:55:20;6.88;;;1.98;;
73140;SDS011;61339;50.558;4.696;2023-07-29T03:57:46;6.47;;;1.90;;
73140;SDS011;61339;50.558;4.696;2023-07-29T04:00:11;11.33;;;2.10;;
73140;SDS011;61339;50.558;4.696;2023-07-29T04:02:37;8.13;;;2.22;;
73140;SDS011;61339;50.558;4.696;2023-07-29T04:05:03;9.00;;;1.90;;
73140;SDS011;61339;50.558;4.696;2023-07-29T04:07:29;8.65;;;2.05;;
73140;SDS011;61339;50.558;4.696;2023-07-29T04:09:55;7.35;;;1.83;;
73140;SDS011;61339;50.558;4.696;2023-07-29T04:12:21;7.57;;;2.10;;
73140;SDS011;61339;50.558;4.696;2023-07-29T04:14:47;6.03;;;2.17;;
73140;SDS011;61339;50.558;4.696;2023-07-29T04:17:12;6.03;;;1.90;;
73140;SDS011;61339;50.558;4.696;2023-07-29T04:19:38;6.43;;;1.93;;
73140;SDS011;61339;50.558;4.696;2023-07-29T04:22:03;6.85;;;2.30;;
73140;SDS011;61339;50.558;4.696;2023-07-29T04:24:29;6.40;;;2.07;;
73140;SDS011;61339;50.558;4.696;2023-07-29T04:26:54;5.33;;;1.83;;
73140;SDS011;61339;50.558;4.696;2023-07-29T04:29:20;6.17;;;2.23;;
73140;SDS011;61339;50.558;4.696;2023-07-29T04:31:47;8.13;;;1.90;;
73140;SDS011;61339;50.558;4.696;2023-07-29T04:34:13;6.78;;;2.00;;
73140;SDS011;61339;50.558;4.696;2023-07-29T04:36:38;4.83;;;1.90;;
73140;SDS011;61339;50.558;4.696;2023-07-29T04:39:03;7.70;;;2.10;;
73140;SDS011;61339;50.558;4.696;2023-07-29T04:41:29;5.67;;;1.70;;
73140;SDS011;61339;50.558;4.696;2023-07-29T04:43:54;5.40;;;1.83;;
73140;SDS011;61339;50.558;4.696;2023-07-29T04:46:20;5.40;;;1.87;;
73140;SDS011;61339;50.558;4.696;2023-07-29T04:48:45;7.72;;;2.00;;
73140;SDS011;61339;50.558;4.696;2023-07-29T04:51:10;7.27;;;2.17;;
73140;SDS011;61339;50.558;4.696;2023-07-29T04:53:36;5.53;;;1.77;;
73140;SDS011;61339;50.558;4.696;2023-07-29T04:56:02;5.85;;;2.08;;
73140;SDS011;61339;50.558;4.696;2023-07-29T04:58:28;5.20;;;1.80;;
73140;SDS011;61339;50.558;4.696;2023-07-29T05:00:54;5.32;;;1.73;;
73140;SDS011;61339;50.558;4.696;2023-07-29T05:03:20;5.72;;;2.30;;
73140;SDS011;61339;50.558;4.696;2023-07-29T05:05:46;9.17;;;2.40;;
73140;SDS011;61339;50.558;4.696;2023-07-29T05:08:11;5.33;;;1.70;;
73140;SDS011;61339;50.558;4.696;2023-07-29T05:10:36;5.07;;;1.70;;
73140;SDS011;61339;50.558;4.696;2023-07-29T05:13:02;5.03;;;1.80;;
73140;SDS011;61339;50.558;4.696;2023-07-29T05:15:27;5.47;;;1.60;;
73140;SDS011;61339;50.558;4.696;2023-07-29T05:17:53;6.07;;;1.70;;
73140;SDS011;61339;50.558;4.696;2023-07-29T05:20:18;6.77;;;1.93;;
73140;SDS011;61339;50.558;4.696;2023-07-29T05:22:43;6.57;;;2.03;;
73140;SDS011;61339;50.558;4.696;2023-07-29T05:25:09;6.50;;;1.80;;
73140;SDS011;61339;50.558;4.696;2023-07-29T05:27:34;5.93;;;1.87;;
73140;SDS011;61339;50.558;4.696;2023-07-29T05:30:00;7.47;;;1.83;;
73140;SDS011;61339;50.558;4.696;2023-07-29T05:32:25;8.07;;;1.97;;
73140;SDS011;61339;50.558;4.696;2023-07-29T05:34:51;5.97;;;1.95;;
73140;SDS011;61339;50.558;4.696;2023-07-29T05:37:16;6.63;;;1.90;;
73140;SDS011;61339;50.558;4.696;2023-07-29T05:39:42;4.77;;;1.83;;
73140;SDS011;61339;50.558;4.696;2023-07-29T05:42:07;6.67;;;1.90;;
73140;SDS011;61339;50.558;4.696;2023-07-29T05:44:33;7.43;;;1.98;;
73140;SDS011;61339;50.558;4.696;2023-07-29T05:46:58;7.47;;;2.00;;
73140;SDS011;61339;50.558;4.696;2023-07-29T05:49:23;6.33;;;2.13;;
73140;SDS011;61339;50.558;4.696;2023-07-29T05:51:49;6.07;;;1.90;;
73140;SDS011;61339;50.558;4.696;2023-07-29T05:54:17;4.93;;;1.92;;
73140;SDS011;61339;50.558;4.696;2023-07-29T05:56:43;5.97;;;1.70;;
73140;SDS011;61339;50.558;4.696;2023-07-29T05:59:08;5.93;;;2.00;;
73140;SDS011;61339;50.558;4.696;2023-07-29T06:01:34;3.80;;;1.50;;
73140;SDS011;61339;50.558;4.696;2023-07-29T06:03:59;6.63;;;1.58;;
73140;SDS011;61339;50.558;4.696;2023-07-29T06:06:25;7.40;;;1.30;;
73140;SDS011;61339;50.558;4.696;2023-07-29T06:08:51;4.07;;;1.30;;
73140;SDS011;61339;50.558;4.696;2023-07-29T06:11:16;6.40;;;1.47;;
73140;SDS011;61339;50.558;4.696;2023-07-29T06:13:42;4.10;;;1.50;;
73140;SDS011;61339;50.558;4.696;2023-07-29T06:16:07;5.10;;;1.43;;
73140;SDS011;61339;50.558;4.696;2023-07-29T06:18:32;6.20;;;1.50;;
73140;SDS011;61339;50.558;4.696;2023-07-29T06:20:58;4.00;;;1.40;;
73140;SDS011;61339;50.558;4.696;2023-07-29T06:23:23;5.90;;;1.30;;
73140;SDS011;61339;50.558;4.696;2023-07-29T06:25:49;5.00;;;1.40;;
73140;SDS011;61339;50.558;4.696;2023-07-29T06:28:14;5.20;;;1.25;;
73140;SDS011;61339;50.558;4.696;2023-07-29T06:30:39;3.47;;;1.20;;
73140;SDS011;61339;50.558;4.696;2023-07-29T06:33:05;6.73;;;1.37;;
73140;SDS011;61339;50.558;4.696;2023-07-29T06:35:31;4.50;;;1.40;;
73140;SDS011;61339;50.558;4.696;2023-07-29T06:37:56;3.23;;;1.20;;
73140;SDS011;61339;50.558;4.696;2023-07-29T06:40:22;5.97;;;1.40;;
73140;SDS011;61339;50.558;4.696;2023-07-29T06:42:47;3.20;;;1.17;;
73140;SDS011;61339;50.558;4.696;2023-07-29T06:45:12;4.37;;;1.20;;
73140;SDS011;61339;50.558;4.696;2023-07-29T06:47:38;3.30;;;1.33;;
73140;SDS011;61339;50.558;4.696;2023-07-29T06:50:04;5.77;;;1.20;;
73140;SDS011;61339;50.558;4.696;2023-07-29T06:52:30;6.80;;;1.35;;
73140;SDS011;61339;50.558;4.696;2023-07-29T06:54:55;4.07;;;1.23;;
73140;SDS011;61339;50.558;4.696;2023-07-29T06:57:21;4.63;;;1.30;;
73140;SDS011;61339;50.558;4.696;2023-07-29T06:59:46;4.83;;;1.00;;
73140;SDS011;61339;50.558;4.696;2023-07-29T07:02:12;3.13;;;1.13;;
73140;SDS011;61339;50.558;4.696;2023-07-29T07:04:37;4.18;;;1.17;;
73140;SDS011;61339;50.558;4.696;2023-07-29T07:07:02;3.63;;;1.17;;
73140;SDS011;61339;50.558;4.696;2023-07-29T07:09:28;4.97;;;1.30;;
73140;SDS011;61339;50.558;4.696;2023-07-29T07:11:53;4.67;;;1.00;;
73140;SDS011;61339;50.558;4.696;2023-07-29T07:14:19;4.88;;;1.20;;
73140;SDS011;61339;50.558;4.696;2023-07-29T07:16:44;3.30;;;1.00;;
73140;SDS011;61339;50.558;4.696;2023-07-29T07:19:10;3.07;;;1.00;;
73140;SDS011;61339;50.558;4.696;2023-07-29T07:21:36;4.20;;;1.10;;
73140;SDS011;61339;50.558;4.696;2023-07-29T07:24:01;4.50;;;1.20;;
73140;SDS011;61339;50.558;4.696;2023-07-29T07:26:27;3.70;;;1.10;;
73140;SDS011;61339;50.558;4.696;2023-07-29T07:28:52;4.68;;;1.00;;
73140;SDS011;61339;50.558;4.696;2023-07-29T07:31:17;3.57;;;1.00;;
73140;SDS011;61339;50.558;4.696;2023-07-29T07:33:43;6.37;;;0.90;;
73140;SDS011;61339;50.558;4.696;2023-07-29T07:36:09;3.95;;;1.05;;
73140;SDS011;61339;50.558;4.696;2023-07-29T07:38:34;2.53;;;0.90;;
73140;SDS011;61339;50.558;4.696;2023-07-29T07:41:00;3.37;;;1.13;;
73140;SDS011;61339;50.558;4.696;2023-07-29T07:43:25;2.83;;;1.10;;
73140;SDS011;61339;50.558;4.696;2023-07-29T07:45:51;4.40;;;1.00;;
73140;SDS011;61339;50.558;4.696;2023-07-29T07:48:22;2.00;;;0.73;;
73140;SDS011;61339;50.558;4.696;2023-07-29T07:50:47;3.83;;;0.83;;
73140;SDS011;61339;50.558;4.696;2023-07-29T07:53:13;2.10;;;0.70;;
73140;SDS011;61339;50.558;4.696;2023-07-29T07:55:38;3.53;;;1.03;;
73140;SDS011;61339;50.558;4.696;2023-07-29T07:58:03;3.73;;;0.80;;
73140;SDS011;61339;50.558;4.696;2023-07-29T08:00:29;3.70;;;1.30;;
73140;SDS011;61339;50.558;4.696;2023-07-29T08:02:54;3.53;;;1.00;;
73140;SDS011;61339;50.558;4.696;2023-07-29T08:05:20;3.20;;;1.00;;
73140;SDS011;61339;50.558;4.696;2023-07-29T08:07:45;3.30;;;0.90;;
73140;SDS011;61339;50.558;4.696;2023-07-29T08:10:10;3.60;;;0.80;;
73140;SDS011;61339;50.558;4.696;2023-07-29T08:12:36;3.13;;;0.93;;
73140;SDS011;61339;50.558;4.696;2023-07-29T08:15:01;2.97;;;0.90;;
73140;SDS011;61339;50.558;4.696;2023-07-29T08:17:28;2.40;;;0.80;;
73140;SDS011;61339;50.558;4.696;2023-07-29T08:19:53;5.00;;;0.90;;
73140;SDS011;61339;50.558;4.696;2023-07-29T08:22:18;5.45;;;0.80;;
73140;SDS011;61339;50.558;4.696;2023-07-29T08:24:45;3.67;;;0.90;;
73140;SDS011;61339;50.558;4.696;2023-07-29T08:27:10;3.50;;;0.80;;
73140;SDS011;61339;50.558;4.696;2023-07-29T08:29:36;3.07;;;0.83;;
73140;SDS011;61339;50.558;4.696;2023-07-29T08:32:01;3.43;;;0.90;;
73140;SDS011;61339;50.558;4.696;2023-07-29T08:34:27;3.07;;;0.73;;
73140;SDS011;61339;50.558;4.696;2023-07-29T08:36:52;4.07;;;0.87;;
73140;SDS011;61339;50.558;4.696;2023-07-29T08:39:18;2.90;;;0.80;;
73140;SDS011;61339;50.558;4.696;2023-07-29T08:41:51;2.67;;;0.77;;
73140;SDS011;61339;50.558;4.696;2023-07-29T08:44:24;2.67;;;0.70;;
73140;SDS011;61339;50.558;4.696;2023-07-29T08:46:51;2.95;;;0.70;;
73140;SDS011;61339;50.558;4.696;2023-07-29T08:49:18;3.08;;;0.98;;
73140;SDS011;61339;50.558;4.696;2023-07-29T08:51:44;2.67;;;0.80;;
73140;SDS011;61339;50.558;4.696;2023-07-29T08:54:12;3.65;;;0.70;;
73140;SDS011;61339;50.558;4.696;2023-07-29T08:56:40;2.25;;;0.70;;
73140;SDS011;61339;50.558;4.696;2023-07-29T08:59:06;2.58;;;0.75;;
73140;SDS011;61339;50.558;4.696;2023-07-29T09:01:32;4.47;;;0.98;;
73140;SDS011;61339;50.558;4.696;2023-07-29T09:03:57;2.67;;;0.80;;
73140;SDS011;61339;50.558;4.696;2023-07-29T09:06:23;2.90;;;0.90;;
73140;SDS011;61339;50.558;4.696;2023-07-29T09:08:50;2.50;;;0.90;;
73140;SDS011;61339;50.558;4.696;2023-07-29T09:11:17;3.22;;;0.70;;
73140;SDS011;61339;50.558;4.696;2023-07-29T09:13:44;2.30;;;0.77;;
73140;SDS011;61339;50.558;4.696;2023-07-29T09:16:09;3.08;;;0.70;;
73140;SDS011;61339;50.558;4.696;2023-07-29T09:18:35;2.70;;;0.90;;
73140;SDS011;61339;50.558;4.696;2023-07-29T09:21:00;4.70;;;0.90;;
73140;SDS011;61339;50.558;4.696;2023-07-29T09:23:26;3.47;;;0.90;;
73140;SDS011;61339;50.558;4.696;2023-07-29T09:26:03;2.42;;;0.95;;
73140;SDS011;61339;50.558;4.696;2023-07-29T09:28:32;3.67;;;1.10;;
73140;SDS011;61339;50.558;4.696;2023-07-29T09:30:59;4.60;;;1.00;;
73140;SDS011;61339;50.558;4.696;2023-07-29T09:33:25;2.93;;;0.90;;
73140;SDS011;61339;50.558;4.696;2023-07-29T09:35:52;2.95;;;1.20;;
73140;SDS011;61339;50.558;4.696;2023-07-29T09:38:17;3.67;;;0.83;;
73140;SDS011;61339;50.558;4.696;2023-07-29T09:40:43;3.20;;;0.93;;
73140;SDS011;61339;50.558;4.696;2023-07-29T09:43:10;3.15;;;0.70;;
73140;SDS011;61339;50.558;4.696;2023-07-29T09:45:36;3.42;;;0.80;;
73140;SDS011;61339;50.558;4.696;2023-07-29T09:48:03;3.10;;;0.80;;
73140;SDS011;61339;50.558;4.696;2023-07-29T09:50:30;3.45;;;0.80;;
73140;SDS011;61339;50.558;4.696;2023-07-29T09:52:56;2.30;;;0.80;;
73140;SDS011;61339;50.558;4.696;2023-07-29T09:55:25;2.83;;;0.85;;
73140;SDS011;61339;50.558;4.696;2023-07-29T09:57:58;3.30;;;1.00;;
73140;SDS011;61339;50.558;4.696;2023-07-29T10:00:32;3.45;;;0.95;;
73140;SDS011;61339;50.558;4.696;2023-07-29T10:02:58;3.00;;;0.82;;
73140;SDS011;61339;50.558;4.696;2023-07-29T10:05:27;2.97;;;0.80;;
73140;SDS011;61339;50.558;4.696;2023-07-29T10:07:53;2.43;;;0.80;;
73140;SDS011;61339;50.558;4.696;2023-07-29T10:10:19;2.28;;;0.80;;
73140;SDS011;61339;50.558;4.696;2023-07-29T10:12:45;3.63;;;0.90;;
73140;SDS011;61339;50.558;4.696;2023-07-29T10:15:11;3.30;;;1.00;;
73140;SDS011;61339;50.558;4.696;2023-07-29T10:17:37;3.77;;;1.00;;
73140;SDS011;61339;50.558;4.696;2023-07-29T10:20:05;3.10;;;0.97;;
73140;SDS011;61339;50.558;4.696;2023-07-29T10:22:33;2.58;;;0.90;;
73140;SDS011;61339;50.558;4.696;2023-07-29T10:25:03;3.35;;;1.00;;
73140;SDS011;61339;50.558;4.696;2023-07-29T10:27:44;2.42;;;0.90;;
73140;SDS011;61339;50.558;4.696;2023-07-29T10:30:13;2.67;;;1.00;;
73140;SDS011;61339;50.558;4.696;2023-07-29T10:32:41;4.40;;;1.00;;
73140;SDS011;61339;50.558;4.696;2023-07-29T10:35:13;3.22;;;1.15;;
73140;SDS011;61339;50.558;4.696;2023-07-29T10:37:39;3.50;;;1.10;;
73140;SDS011;61339;50.558;4.696;2023-07-29T10:40:06;4.10;;;1.10;;
73140;SDS011;61339;50.558;4.696;2023-07-29T10:42:33;8.85;;;2.20;;
73140;SDS011;61339;50.558;4.696;2023-07-29T10:45:00;7.33;;;1.70;;
73140;SDS011;61339;50.558;4.696;2023-07-29T10:47:26;7.43;;;2.22;;
73140;SDS011;61339;50.558;4.696;2023-07-29T10:49:55;4.90;;;1.70;;
73140;SDS011;61339;50.558;4.696;2023-07-29T10:52:28;5.88;;;2.30;;
73140;SDS011;61339;50.558;4.696;2023-07-29T10:55:00;7.13;;;2.42;;
73140;SDS011;61339;50.558;4.696;2023-07-29T10:57:33;5.65;;;2.10;;
73140;SDS011;61339;50.558;4.696;2023-07-29T11:00:00;5.15;;;1.90;;
73140;SDS011;61339;50.558;4.696;2023-07-29T11:02:30;5.37;;;1.97;;
73140;SDS011;61339;50.558;4.696;2023-07-29T11:05:15;5.95;;;2.00;;
73140;SDS011;61339;50.558;4.696;2023-07-29T11:07:46;6.10;;;2.10;;
73140;SDS011;61339;50.558;4.696;2023-07-29T11:10:13;6.03;;;1.83;;
73140;SDS011;61339;50.558;4.696;2023-07-29T11:12:40;5.07;;;2.30;;
73140;SDS011;61339;50.558;4.696;2023-07-29T11:17:40;4.90;;;2.20;;
73140;SDS011;61339;50.558;4.696;2023-07-29T11:20:10;6.53;;;2.00;;
73140;SDS011;61339;50.558;4.696;2023-07-29T11:22:37;4.13;;;1.58;;
73140;SDS011;61339;50.558;4.696;2023-07-29T11:25:02;6.57;;;2.03;;
73140;SDS011;61339;50.558;4.696;2023-07-29T11:27:29;7.15;;;1.90;;
73140;SDS011;61339;50.558;4.696;2023-07-29T11:30:03;5.47;;;1.50;;
73140;SDS011;61339;50.558;4.696;2023-07-29T11:32:30;3.10;;;1.30;;
73140;SDS011;61339;50.558;4.696;2023-07-29T11:34:57;4.47;;;1.33;;
73140;SDS011;61339;50.558;4.696;2023-07-29T11:37:26;6.80;;;1.40;;
73140;SDS011;61339;50.558;4.696;2023-07-29T11:39:51;3.87;;;1.50;;
73140;SDS011;61339;50.558;4.696;2023-07-29T11:42:16;5.47;;;1.80;;
73140;SDS011;61339;50.558;4.696;2023-07-29T11:44:42;4.03;;;1.60;;
73140;SDS011;61339;50.558;4.696;2023-07-29T11:47:08;5.25;;;1.90;;
73140;SDS011;61339;50.558;4.696;2023-07-29T11:49:34;4.97;;;1.80;;
73140;SDS011;61339;50.558;4.696;2023-07-29T11:52:01;5.15;;;1.77;;
73140;SDS011;61339;50.558;4.696;2023-07-29T11:54:28;5.83;;;2.17;;
73140;SDS011;61339;50.558;4.696;2023-07-29T11:56:54;3.72;;;1.60;;
73140;SDS011;61339;50.558;4.696;2023-07-29T11:59:20;4.22;;;1.70;;
73140;SDS011;61339;50.558;4.696;2023-07-29T12:01:46;4.30;;;1.50;;
73140;SDS011;61339;50.558;4.696;2023-07-29T12:04:11;4.90;;;1.67;;
73140;SDS011;61339;50.558;4.696;2023-07-29T12:06:37;3.33;;;1.50;;
73140;SDS011;61339;50.558;4.696;2023-07-29T12:09:04;2.97;;;1.35;;
73140;SDS011;61339;50.558;4.696;2023-07-29T12:11:30;4.77;;;1.90;;
73140;SDS011;61339;50.558;4.696;2023-07-29T12:13:55;3.88;;;1.50;;
73140;SDS011;61339;50.558;4.696;2023-07-29T12:16:21;3.45;;;1.30;;
73140;SDS011;61339;50.558;4.696;2023-07-29T12:18:46;3.77;;;1.27;;
73140;SDS011;61339;50.558;4.696;2023-07-29T12:21:14;3.92;;;1.10;;
73140;SDS011;61339;50.558;4.696;2023-07-29T12:23:39;3.60;;;1.00;;
73140;SDS011;61339;50.558;4.696;2023-07-29T12:26:05;3.72;;;1.00;;
73140;SDS011;61339;50.558;4.696;2023-07-29T12:28:31;2.23;;;0.90;;
73140;SDS011;61339;50.558;4.696;2023-07-29T12:30:57;2.70;;;0.95;;
73140;SDS011;61339;50.558;4.696;2023-07-29T12:33:29;3.90;;;1.00;;
73140;SDS011;61339;50.558;4.696;2023-07-29T12:35:55;3.03;;;1.17;;
73140;SDS011;61339;50.558;4.696;2023-07-29T12:38:21;3.83;;;0.90;;
73140;SDS011;61339;50.558;4.696;2023-07-29T12:40:47;3.67;;;0.95;;
73140;SDS011;61339;50.558;4.696;2023-07-29T12:43:12;5.33;;;1.00;;
73140;SDS011;61339;50.558;4.696;2023-07-29T12:45:37;3.63;;;1.00;;
73140;SDS011;61339;50.558;4.696;2023-07-29T12:48:05;7.05;;;1.75;;
73140;SDS011;61339;50.558;4.696;2023-07-29T12:50:30;3.37;;;1.20;;
73140;SDS011;61339;50.558;4.696;2023-07-29T12:52:56;4.00;;;1.10;;
73140;SDS011;61339;50.558;4.696;2023-07-29T12:55:22;2.17;;;0.90;;
73140;SDS011;61339;50.558;4.696;2023-07-29T12:57:47;3.40;;;0.90;;
73140;SDS011;61339;50.558;4.696;2023-07-29T13:00:13;7.27;;;1.00;;
73140;SDS011;61339;50.558;4.696;2023-07-29T13:02:38;1.58;;;0.70;;
73140;SDS011;61339;50.558;4.696;2023-07-29T13:05:04;2.20;;;0.73;;
73140;SDS011;61339;50.558;4.696;2023-07-29T13:07:30;1.65;;;0.60;;
73140;SDS011;61339;50.558;4.696;2023-07-29T13:09:55;2.87;;;0.70;;
73140;SDS011;61339;50.558;4.696;2023-07-29T13:12:21;1.83;;;0.70;;
73140;SDS011;61339;50.558;4.696;2023-07-29T13:14:46;1.95;;;0.60;;
73140;SDS011;61339;50.558;4.696;2023-07-29T13:17:11;2.47;;;0.60;;
73140;SDS011;61339;50.558;4.696;2023-07-29T13:19:37;1.27;;;0.50;;
73140;SDS011;61339;50.558;4.696;2023-07-29T13:22:02;3.47;;;0.50;;
73140;SDS011;61339;50.558;4.696;2023-07-29T13:24:28;1.85;;;0.60;;
73140;SDS011;61339;50.558;4.696;2023-07-29T13:26:53;3.37;;;0.60;;
73140;SDS011;61339;50.558;4.696;2023-07-29T13:29:18;2.77;;;0.70;;
73140;SDS011;61339;50.558;4.696;2023-07-29T13:31:44;1.90;;;0.70;;
73140;SDS011;61339;50.558;4.696;2023-07-29T13:34:10;2.73;;;0.80;;
73140;SDS011;61339;50.558;4.696;2023-07-29T13:36:35;2.13;;;0.60;;
73140;SDS011;61339;50.558;4.696;2023-07-29T13:39:02;1.88;;;0.57;;
73140;SDS011;61339;50.558;4.696;2023-07-29T13:41:28;4.60;;;0.90;;
73140;SDS011;61339;50.558;4.696;2023-07-29T13:43:53;1.80;;;0.70;;
73140;SDS011;61339;50.558;4.696;2023-07-29T13:46:19;2.40;;;0.60;;
73140;SDS011;61339;50.558;4.696;2023-07-29T13:48:46;3.15;;;0.75;;
73140;SDS011;61339;50.558;4.696;2023-07-29T13:51:11;3.50;;;0.83;;
73140;SDS011;61339;50.558;4.696;2023-07-29T13:53:37;1.50;;;0.67;;
73140;SDS011;61339;50.558;4.696;2023-07-29T13:56:03;2.27;;;0.70;;
73140;SDS011;61339;50.558;4.696;2023-07-29T13:58:30;1.97;;;0.60;;
73140;SDS011;61339;50.558;4.696;2023-07-29T14:00:55;2.70;;;0.70;;
73140;SDS011;61339;50.558;4.696;2023-07-29T14:03:20;1.20;;;0.60;;
73140;SDS011;61339;50.558;4.696;2023-07-29T14:05:46;1.60;;;0.70;;
73140;SDS011;61339;50.558;4.696;2023-07-29T14:08:12;2.28;;;0.70;;
73140;SDS011;61339;50.558;4.696;2023-07-29T14:10:37;2.07;;;0.70;;
73140;SDS011;61339;50.558;4.696;2023-07-29T14:13:02;2.33;;;0.80;;
73140;SDS011;61339;50.558;4.696;2023-07-29T14:15:28;1.80;;;0.70;;
73140;SDS011;61339;50.558;4.696;2023-07-29T14:17:53;1.70;;;0.70;;
73140;SDS011;61339;50.558;4.696;2023-07-29T14:20:19;2.53;;;0.83;;
73140;SDS011;61339;50.558;4.696;2023-07-29T14:22:44;2.87;;;0.83;;
73140;SDS011;61339;50.558;4.696;2023-07-29T14:25:10;5.38;;;1.05;;
73140;SDS011;61339;50.558;4.696;2023-07-29T14:27:36;3.50;;;0.70;;
73140;SDS011;61339;50.558;4.696;2023-07-29T14:30:01;2.13;;;0.70;;
73140;SDS011;61339;50.558;4.696;2023-07-29T14:32:27;3.17;;;0.80;;
73140;SDS011;61339;50.558;4.696;2023-07-29T14:34:53;4.13;;;1.23;;
73140;SDS011;61339;50.558;4.696;2023-07-29T14:37:18;2.73;;;0.90;;
73140;SDS011;61339;50.558;4.696;2023-07-29T14:39:44;3.03;;;0.83;;
73140;SDS011;61339;50.558;4.696;2023-07-29T14:42:09;5.13;;;1.00;;
73140;SDS011;61339;50.558;4.696;2023-07-29T14:44:35;5.28;;;0.80;;
73140;SDS011;61339;50.558;4.696;2023-07-29T14:47:00;2.17;;;0.70;;